createdAt,value
2023-07-21T00:02:11.709Z,6.30
2023-07-21T00:04:37.844Z,7.47
2023-07-21T00:07:04.057Z,6.77
2023-07-21T00:09:30.200Z,7.47
2023-07-21T00:11:56.407Z,7.47
2023-07-21T00:14:22.568Z,7.27
2023-07-21T00:16:48.882Z,7.70
2023-07-21T00:19:15.012Z,8.37
2023-07-21T00:21:41.165Z,8.47
2023-07-21T00:24:07.363Z,7.10
2023-07-21T00:26:33.560Z,7.70
2023-07-21T00:28:59.696Z,8.40
2023-07-21T00:31:25.883Z,8.90
2023-07-21T00:33:52.074Z,8.33
2023-07-21T00:36:18.244Z,8.33
2023-07-21T00:38:44.406Z,8.90
2023-07-21T00:41:10.575Z,8.50
2023-07-21T00:43:36.725Z,8.40
2023-07-21T00:46:02.872Z,9.37
2023-07-21T00:48:29.028Z,8.50
2023-07-21T00:50:55.188Z,8.30
2023-07-21T00:53:21.340Z,7.97
2023-07-21T00:55:47.503Z,8.13
2023-07-21T00:58:13.661Z,8.77
2023-07-21T01:00:39.865Z,8.73
2023-07-21T01:03:06.115Z,9.80
2023-07-21T01:05:32.322Z,9.03
2023-07-21T01:07:58.474Z,8.90
2023-07-21T01:10:24.607Z,10.07
2023-07-21T01:12:50.753Z,10.07
2023-07-21T01:15:16.922Z,9.07
2023-07-21T01:17:43.096Z,8.60
2023-07-21T01:20:09.264Z,9.70
2023-07-21T01:22:35.415Z,9.90
2023-07-21T01:25:01.561Z,10.03
2023-07-21T01:27:27.703Z,11.73
2023-07-21T01:29:53.852Z,12.77
2023-07-21T01:32:20.008Z,9.20
2023-07-21T01:34:46.151Z,9.20
2023-07-21T01:37:12.318Z,9.10
2023-07-21T01:39:38.464Z,10.33
2023-07-21T01:42:04.599Z,11.73
2023-07-21T01:44:30.731Z,11.70
2023-07-21T01:46:56.936Z,9.13
2023-07-21T01:49:23.208Z,11.03
2023-07-21T01:51:49.351Z,9.63
2023-07-21T01:54:15.515Z,8.40
2023-07-21T01:56:41.654Z,9.83
2023-07-21T01:59:07.842Z,9.83
2023-07-21T02:01:34.039Z,9.53
2023-07-21T02:04:00.306Z,8.87
2023-07-21T02:06:26.671Z,9.17
2023-07-21T02:08:53.038Z,9.90
2023-07-21T02:11:19.182Z,10.50
2023-07-21T02:13:45.312Z,9.80
2023-07-21T02:16:11.467Z,9.77
2023-07-21T02:18:37.637Z,9.87
2023-07-21T02:21:03.862Z,9.80
2023-07-21T02:23:30.124Z,9.53
2023-07-21T02:25:56.274Z,9.77
2023-07-21T02:28:22.423Z,9.90
2023-07-21T02:30:48.597Z,10.00
2023-07-21T02:33:14.753Z,9.50
2023-07-21T02:35:40.891Z,9.53
2023-07-21T02:38:07.040Z,8.83
2023-07-21T02:40:33.187Z,10.07
2023-07-21T02:42:59.337Z,10.77
2023-07-21T02:45:25.502Z,10.93
2023-07-21T02:47:51.673Z,9.83
2023-07-21T02:50:17.858Z,9.73
2023-07-21T02:52:44.022Z,8.60
2023-07-21T02:55:10.232Z,9.43
2023-07-21T02:57:36.368Z,10.37
2023-07-21T03:00:02.513Z,10.20
2023-07-21T03:02:28.722Z,11.20
2023-07-21T03:04:54.937Z,10.77
2023-07-21T03:07:21.101Z,12.43
2023-07-21T03:09:47.268Z,12.30
2023-07-21T03:12:13.400Z,11.53
2023-07-21T03:14:39.540Z,11.90
2023-07-21T03:17:05.691Z,13.10
2023-07-21T03:19:31.892Z,11.90
2023-07-21T03:21:58.091Z,12.93
2023-07-21T03:24:24.287Z,13.20
2023-07-21T03:26:50.445Z,13.10
2023-07-21T03:29:16.592Z,14.23
2023-07-21T03:31:42.744Z,14.03
2023-07-21T03:34:08.946Z,13.83
2023-07-21T03:36:35.116Z,12.23
2023-07-21T03:39:01.261Z,11.93
2023-07-21T03:41:27.424Z,12.00
2023-07-21T03:43:53.572Z,12.10
2023-07-21T03:46:19.771Z,13.57
2023-07-21T03:48:45.985Z,13.40
2023-07-21T03:51:12.161Z,12.97
2023-07-21T03:53:38.293Z,14.20
2023-07-21T03:56:04.474Z,13.30
2023-07-21T03:58:30.601Z,13.13
2023-07-21T04:00:56.840Z,12.23
2023-07-21T04:03:23.145Z,11.23
2023-07-21T04:05:49.306Z,12.40
2023-07-21T04:08:15.442Z,12.90
2023-07-21T04:10:41.577Z,13.53
2023-07-21T04:13:07.770Z,14.20
2023-07-21T04:15:33.925Z,13.67
2023-07-21T04:18:00.162Z,13.07
2023-07-21T04:20:26.352Z,14.23
2023-07-21T04:22:52.489Z,15.47
2023-07-21T04:25:18.636Z,12.67
2023-07-21T04:27:44.778Z,12.20
2023-07-21T04:30:10.932Z,12.47
2023-07-21T04:32:37.084Z,12.00
2023-07-21T04:35:04.954Z,11.53
2023-07-21T04:37:31.360Z,14.37
2023-07-21T04:39:58.563Z,14.60
2023-07-21T04:42:24.722Z,14.47
2023-07-21T04:44:50.873Z,13.73
2023-07-21T04:47:17.105Z,13.70
2023-07-21T04:49:43.303Z,12.67
2023-07-21T04:52:09.452Z,12.53
2023-07-21T04:54:35.573Z,12.63
2023-07-21T04:57:01.730Z,14.10
2023-07-21T04:59:28.922Z,12.60
2023-07-21T05:01:55.224Z,12.10
2023-07-21T05:04:21.373Z,12.90
2023-07-21T05:06:47.518Z,13.33
2023-07-21T05:09:13.668Z,11.70
2023-07-21T05:11:39.832Z,12.87
2023-07-21T05:14:05.977Z,12.80
2023-07-21T05:16:32.128Z,12.80
2023-07-21T05:18:58.276Z,13.37
2023-07-21T05:21:24.421Z,13.53
2023-07-21T05:23:50.560Z,13.23
2023-07-21T05:26:16.702Z,13.00
2023-07-21T05:28:42.859Z,12.67
2023-07-21T05:31:09.020Z,12.50
2023-07-21T05:33:35.263Z,12.17
2023-07-21T05:36:01.398Z,13.50
2023-07-21T05:38:27.542Z,13.23
2023-07-21T05:40:53.674Z,14.20
2023-07-21T05:43:19.827Z,13.50
2023-07-21T05:45:45.956Z,13.73
2023-07-21T05:48:12.112Z,13.33
2023-07-21T05:50:38.415Z,13.20
2023-07-21T05:53:04.751Z,13.00
2023-07-21T05:55:30.902Z,13.83
2023-07-21T05:57:57.090Z,13.90
2023-07-21T06:00:23.237Z,14.53
2023-07-21T06:02:49.420Z,13.40
2023-07-21T06:05:15.696Z,14.10
2023-07-21T06:07:41.853Z,14.33
2023-07-21T06:10:07.985Z,13.73
2023-07-21T06:12:34.133Z,14.43
2023-07-21T06:15:00.274Z,13.70
2023-07-21T06:17:26.487Z,13.73
2023-07-21T06:19:52.686Z,14.60
2023-07-21T06:22:18.844Z,15.33
2023-07-21T06:24:45.052Z,16.00
2023-07-21T06:27:11.216Z,15.47
2023-07-21T06:29:37.379Z,16.67
2023-07-21T06:32:03.557Z,19.00
2023-07-21T06:34:29.738Z,18.73
2023-07-21T06:36:55.956Z,19.70
2023-07-21T06:39:22.111Z,20.43
2023-07-21T06:41:48.239Z,20.10
2023-07-21T06:44:14.380Z,18.53
2023-07-21T06:46:40.587Z,20.37
2023-07-21T06:49:06.790Z,18.03
2023-07-21T06:51:32.931Z,19.33
2023-07-21T06:53:59.131Z,18.40
2023-07-21T06:56:25.299Z,18.33
2023-07-21T06:58:51.488Z,16.93
2023-07-21T07:01:17.670Z,16.93
2023-07-21T07:03:46.376Z,16.43
2023-07-21T07:06:14.326Z,17.47
2023-07-21T07:08:40.474Z,16.93
2023-07-21T07:11:06.617Z,15.80
2023-07-21T07:13:32.815Z,16.93
2023-07-21T07:15:59.009Z,16.87
2023-07-21T07:18:25.160Z,17.80
2023-07-21T07:20:51.321Z,17.20
2023-07-21T07:23:17.563Z,17.73
2023-07-21T07:25:43.745Z,17.23
2023-07-21T07:28:09.927Z,17.20
2023-07-21T07:30:36.105Z,16.30
2023-07-21T07:33:02.269Z,15.30
2023-07-21T07:35:28.505Z,15.10
2023-07-21T07:37:54.655Z,15.03
2023-07-21T07:40:20.822Z,15.00
2023-07-21T07:42:47.047Z,14.00
2023-07-21T07:45:13.199Z,14.37
2023-07-21T07:47:39.337Z,14.23
2023-07-21T07:50:05.502Z,12.90
2023-07-21T07:52:31.812Z,13.37
2023-07-21T07:54:58.039Z,13.93
2023-07-21T07:57:24.171Z,12.10
2023-07-21T07:59:50.323Z,10.87
2023-07-21T08:02:16.462Z,9.30
2023-07-21T08:04:42.653Z,8.07
2023-07-21T08:07:08.819Z,8.50
2023-07-21T08:09:34.970Z,9.57
2023-07-21T08:12:01.228Z,9.37
2023-07-21T08:14:27.422Z,10.50
2023-07-21T08:16:53.702Z,10.30
2023-07-21T08:19:19.991Z,9.80
2023-07-21T08:21:46.134Z,10.10
2023-07-21T08:24:12.314Z,9.73
2023-07-21T08:26:38.504Z,9.33
2023-07-21T08:29:04.647Z,10.10
2023-07-21T08:31:30.883Z,9.73
2023-07-21T08:33:57.072Z,8.33
2023-07-21T08:36:23.309Z,9.90
2023-07-21T08:38:49.439Z,8.77
2023-07-21T08:41:15.579Z,9.23
2023-07-21T08:43:41.721Z,7.90
2023-07-21T08:46:07.903Z,8.07
2023-07-21T08:48:34.070Z,9.10
2023-07-21T08:51:00.415Z,9.63
2023-07-21T08:53:26.548Z,9.77
2023-07-21T08:55:52.683Z,8.40
2023-07-21T08:58:18.834Z,9.20
2023-07-21T09:00:44.976Z,8.33
2023-07-21T09:03:11.310Z,7.30
2023-07-21T09:05:37.613Z,8.90
2023-07-21T09:08:03.803Z,9.50
2023-07-21T09:10:29.992Z,10.30
2023-07-21T09:12:56.300Z,9.40
2023-07-21T09:15:22.571Z,8.97
2023-07-21T09:17:48.738Z,8.17
2023-07-21T09:20:15.067Z,8.20
2023-07-21T09:22:41.240Z,7.97
2023-07-21T09:25:07.407Z,7.73
2023-07-21T09:27:33.574Z,6.70
2023-07-21T09:29:59.709Z,5.60
2023-07-21T09:32:25.902Z,6.60
2023-07-21T09:34:52.063Z,6.03
2023-07-21T09:37:18.225Z,5.50
2023-07-21T09:39:44.356Z,5.80
2023-07-21T09:42:10.502Z,5.67
2023-07-21T09:44:36.628Z,6.03
2023-07-21T09:47:02.845Z,6.73
2023-07-21T09:49:29.031Z,5.10
2023-07-21T09:51:55.183Z,4.90
2023-07-21T09:54:21.320Z,5.27
2023-07-21T09:56:47.475Z,6.23
2023-07-21T09:59:13.632Z,6.70
2023-07-21T10:01:39.983Z,5.50
2023-07-21T10:04:06.192Z,4.70
2023-07-21T10:06:32.379Z,5.37
2023-07-21T10:08:58.544Z,4.83
2023-07-21T10:11:24.846Z,5.00
2023-07-21T10:13:51.179Z,5.13
2023-07-21T10:16:17.353Z,4.80
2023-07-21T10:18:43.530Z,4.70
2023-07-21T10:21:09.687Z,5.90
2023-07-21T10:23:35.840Z,5.40
2023-07-21T10:26:02.001Z,6.37
2023-07-21T10:28:28.154Z,5.60
2023-07-21T10:30:54.322Z,6.33
2023-07-21T10:33:20.506Z,7.17
2023-07-21T10:35:46.656Z,6.77
2023-07-21T10:38:12.794Z,6.70
2023-07-21T10:40:38.931Z,7.97
2023-07-21T10:43:05.108Z,8.17
2023-07-21T10:45:31.238Z,7.87
2023-07-21T10:47:57.499Z,7.47
2023-07-21T10:50:23.737Z,7.80
2023-07-21T10:52:49.883Z,8.17
2023-07-21T10:55:16.022Z,8.07
2023-07-21T10:57:42.168Z,6.80
2023-07-21T11:00:08.316Z,7.30
2023-07-21T11:02:34.514Z,7.37
2023-07-21T11:05:00.857Z,8.03
2023-07-21T11:07:27.011Z,7.97
2023-07-21T11:09:53.177Z,7.83
2023-07-21T11:12:19.465Z,6.80
2023-07-21T11:14:45.744Z,8.07
2023-07-21T11:17:11.974Z,7.10
2023-07-21T11:19:38.187Z,6.70
2023-07-21T11:22:04.357Z,7.27
2023-07-21T11:24:30.867Z,6.60
2023-07-21T11:26:57.399Z,7.87
2023-07-21T11:29:23.554Z,6.30
2023-07-21T11:31:49.704Z,5.77
2023-07-21T11:34:15.903Z,6.53
2023-07-21T11:36:42.037Z,6.07
2023-07-21T11:39:08.181Z,7.37
2023-07-21T11:41:34.317Z,6.37
2023-07-21T11:44:00.463Z,6.43
2023-07-21T11:46:26.881Z,6.10
2023-07-21T11:48:53.139Z,7.18
2023-07-21T11:51:19.318Z,7.03
2023-07-21T11:53:45.471Z,7.68
2023-07-21T11:56:11.638Z,7.40
2023-07-21T11:58:37.785Z,7.32
2023-07-21T12:01:03.930Z,7.80
2023-07-21T12:03:30.303Z,6.78
2023-07-21T12:05:56.651Z,8.38
2023-07-21T12:08:22.778Z,7.65
2023-07-21T12:10:48.935Z,6.40
2023-07-21T12:13:15.060Z,8.68
2023-07-21T12:15:41.342Z,9.13
2023-07-21T12:18:07.578Z,7.53
2023-07-21T12:20:33.757Z,7.10
2023-07-21T12:22:59.893Z,6.70
2023-07-21T12:25:26.035Z,6.43
2023-07-21T12:27:52.199Z,6.23
2023-07-21T12:30:18.442Z,5.63
2023-07-21T12:32:44.692Z,6.03
2023-07-21T12:35:11.163Z,5.47
2023-07-21T12:37:37.338Z,7.30
2023-07-21T12:40:03.509Z,7.43
2023-07-21T12:42:29.668Z,6.40
2023-07-21T12:44:55.822Z,6.97
2023-07-21T12:47:21.950Z,7.63
2023-07-21T12:49:48.105Z,8.07
2023-07-21T12:52:14.261Z,6.53
2023-07-21T12:54:40.422Z,6.97
2023-07-21T12:57:06.589Z,6.57
2023-07-21T12:59:32.743Z,7.50
2023-07-21T13:01:59.058Z,7.00
2023-07-21T13:04:25.394Z,7.50
2023-07-21T13:06:51.804Z,8.20
2023-07-21T13:09:17.942Z,8.77
2023-07-21T13:11:44.114Z,8.93
2023-07-21T13:14:10.253Z,12.37
2023-07-21T13:16:36.447Z,13.77
2023-07-21T13:19:02.808Z,11.60
2023-07-21T13:21:29.006Z,13.90
2023-07-21T13:23:55.136Z,10.53
2023-07-21T13:26:21.319Z,19.17
2023-07-21T13:28:47.474Z,16.53
2023-07-21T13:31:13.640Z,21.23
2023-07-21T13:33:39.809Z,16.90
2023-07-21T13:36:05.987Z,11.77
2023-07-21T13:38:32.122Z,10.40
2023-07-21T13:40:58.262Z,8.20
2023-07-21T13:43:24.423Z,7.23
2023-07-21T13:45:50.614Z,7.00
2023-07-21T13:48:16.903Z,7.10
2023-07-21T13:50:43.111Z,6.97
2023-07-21T13:53:09.253Z,8.03
2023-07-21T13:55:35.382Z,6.80
2023-07-21T13:58:01.534Z,7.20
2023-07-21T14:00:27.665Z,7.83
2023-07-21T14:02:54.032Z,8.67
2023-07-21T14:05:20.300Z,8.40
2023-07-21T14:07:46.439Z,8.80
2023-07-21T14:10:12.590Z,9.10
2023-07-21T14:12:38.746Z,8.77
2023-07-21T14:15:04.886Z,8.53
2023-07-21T14:17:31.091Z,9.70
2023-07-21T14:19:57.277Z,9.50
2023-07-21T14:22:23.421Z,8.70
2023-07-21T14:24:49.758Z,8.63
2023-07-21T14:27:15.993Z,9.43
2023-07-21T14:29:42.135Z,8.33
2023-07-21T14:32:08.278Z,8.10
2023-07-21T14:34:34.414Z,7.80
2023-07-21T14:37:00.586Z,7.90
2023-07-21T14:39:26.746Z,7.77
2023-07-21T14:41:52.894Z,8.70
2023-07-21T14:44:19.045Z,9.40
2023-07-21T14:46:45.264Z,10.60
2023-07-21T14:49:11.483Z,12.47
2023-07-21T14:51:37.776Z,13.13
2023-07-21T14:54:03.929Z,11.00
2023-07-21T14:56:30.221Z,10.93
2023-07-21T14:58:56.442Z,11.60
2023-07-21T15:01:22.723Z,12.00
2023-07-21T15:03:49.032Z,11.40
2023-07-21T15:06:15.228Z,11.33
2023-07-21T15:08:41.377Z,10.03
2023-07-21T15:11:07.515Z,10.60
2023-07-21T15:13:33.654Z,9.90
2023-07-21T15:15:59.836Z,8.40
2023-07-21T15:18:26.081Z,8.63
2023-07-21T15:20:52.265Z,9.90
2023-07-21T15:23:18.511Z,8.40
2023-07-21T15:25:44.715Z,6.83
2023-07-21T15:28:10.878Z,7.57
2023-07-21T15:30:37.040Z,7.30
2023-07-21T15:33:03.288Z,6.90
2023-07-21T15:35:29.522Z,7.27
2023-07-21T15:37:55.689Z,6.50
2023-07-21T15:40:21.843Z,6.20
2023-07-21T15:42:48.285Z,5.97
2023-07-21T15:45:14.482Z,6.17
2023-07-21T15:47:45.152Z,5.97
2023-07-21T15:50:11.362Z,5.40
2023-07-21T15:52:37.527Z,5.53
2023-07-21T15:55:03.862Z,5.30
2023-07-21T15:57:30.008Z,4.80
2023-07-21T15:59:56.204Z,5.10
2023-07-21T16:02:22.489Z,5.07
2023-07-21T16:04:48.757Z,6.17
2023-07-21T16:07:14.946Z,4.63
2023-07-21T16:09:41.106Z,5.40
2023-07-21T16:12:07.460Z,5.30
2023-07-21T16:14:33.619Z,5.20
2023-07-21T16:16:59.776Z,5.30
2023-07-21T16:19:25.959Z,5.60
2023-07-21T16:21:52.130Z,5.20
2023-07-21T16:24:18.327Z,5.30
2023-07-21T16:26:44.472Z,5.50
2023-07-21T16:29:10.614Z,6.40
2023-07-21T16:31:36.813Z,5.77
2023-07-21T16:34:02.984Z,5.20
2023-07-21T16:36:29.143Z,5.57
2023-07-21T16:38:55.283Z,5.73
2023-07-21T16:41:21.420Z,5.20
2023-07-21T16:43:47.567Z,5.97
2023-07-21T16:46:13.736Z,5.40
2023-07-21T16:48:39.923Z,6.00
2023-07-21T16:51:06.073Z,6.30
2023-07-21T16:53:32.340Z,6.67
2023-07-21T16:55:58.480Z,6.20
2023-07-21T16:58:25.714Z,6.53
2023-07-21T17:00:53.697Z,6.53
2023-07-21T17:03:19.971Z,6.07
2023-07-21T17:05:46.224Z,5.83
2023-07-21T17:08:12.352Z,5.70
2023-07-21T17:10:38.515Z,5.77
2023-07-21T17:13:04.690Z,5.90
2023-07-21T17:15:30.871Z,7.10
2023-07-21T17:17:57.029Z,6.80
2023-07-21T17:20:23.268Z,6.50
2023-07-21T17:22:49.518Z,6.50
2023-07-21T17:25:15.740Z,6.87
2023-07-21T17:27:41.931Z,6.60
2023-07-21T17:30:08.087Z,5.70
2023-07-21T17:32:34.344Z,5.40
2023-07-21T17:35:00.565Z,5.30
2023-07-21T17:37:26.817Z,5.20
2023-07-21T17:39:52.981Z,5.00
2023-07-21T17:42:19.135Z,4.87
2023-07-21T17:44:45.307Z,4.50
2023-07-21T17:47:11.509Z,4.53
2023-07-21T17:49:37.631Z,4.60
2023-07-21T17:52:03.867Z,4.23
2023-07-21T17:54:30.095Z,4.77
2023-07-21T17:56:56.792Z,4.47
2023-07-21T17:59:22.939Z,4.27
2023-07-21T18:01:49.138Z,4.03
2023-07-21T18:04:15.381Z,4.90
2023-07-21T18:06:41.571Z,4.60
2023-07-21T18:09:07.731Z,4.90
2023-07-21T18:11:33.878Z,4.83
2023-07-21T18:14:00.006Z,4.97
2023-07-21T18:16:26.291Z,4.33
2023-07-21T18:18:52.537Z,4.73
2023-07-21T18:21:18.684Z,5.00
2023-07-21T18:23:44.859Z,5.30
2023-07-21T18:26:11.012Z,4.10
2023-07-21T18:28:37.161Z,4.20
2023-07-21T18:31:03.325Z,4.33
2023-07-21T18:33:29.537Z,4.60
2023-07-21T18:35:55.680Z,5.00
2023-07-21T18:38:21.810Z,4.93
2023-07-21T18:40:47.930Z,4.70
2023-07-21T18:43:14.076Z,4.03
2023-07-21T18:45:40.208Z,5.00
2023-07-21T18:48:06.428Z,4.90
2023-07-21T18:50:32.578Z,4.87
2023-07-21T18:52:58.729Z,4.50
2023-07-21T18:55:24.863Z,4.33
2023-07-21T18:57:51.023Z,4.70
2023-07-21T19:00:17.263Z,5.03
2023-07-21T19:02:43.453Z,5.13
2023-07-21T19:05:09.799Z,4.80
2023-07-21T19:07:35.980Z,5.33
2023-07-21T19:10:02.122Z,5.97
2023-07-21T19:12:28.253Z,5.17
2023-07-21T19:14:54.414Z,6.17
2023-07-21T19:17:20.643Z,6.60
2023-07-21T19:19:46.937Z,5.63
2023-07-21T19:22:13.077Z,6.10
2023-07-21T19:24:39.411Z,5.70
2023-07-21T19:27:05.596Z,5.70
2023-07-21T19:29:31.756Z,6.33
2023-07-21T19:31:57.888Z,7.10
2023-07-21T19:34:24.021Z,7.43
2023-07-21T19:36:50.159Z,9.10
2023-07-21T19:39:16.314Z,10.67
2023-07-21T19:41:42.463Z,12.63
2023-07-21T19:44:08.623Z,14.20
2023-07-21T19:46:34.809Z,12.97
2023-07-21T19:49:01.005Z,14.50
2023-07-21T19:51:27.353Z,14.83
2023-07-21T19:53:53.712Z,17.10
2023-07-21T19:56:19.867Z,14.83
2023-07-21T19:58:46.211Z,15.17
2023-07-21T20:01:12.419Z,17.03
2023-07-21T20:03:41.246Z,15.40
2023-07-21T20:06:08.151Z,19.00
2023-07-21T20:08:34.363Z,16.97
2023-07-21T20:11:00.506Z,17.43
2023-07-21T20:13:26.645Z,19.37
2023-07-21T20:15:52.792Z,19.50
2023-07-21T20:18:18.938Z,18.93
2023-07-21T20:20:45.075Z,21.33
2023-07-21T20:23:11.220Z,19.67
2023-07-21T20:25:37.378Z,21.87
2023-07-21T20:28:03.564Z,21.27
2023-07-21T20:30:29.707Z,23.23
2023-07-21T20:32:55.905Z,23.17
2023-07-21T20:35:22.061Z,25.73
2023-07-21T20:37:48.196Z,25.03
2023-07-21T20:40:14.362Z,24.57
2023-07-21T20:42:40.491Z,25.83
2023-07-21T20:45:06.656Z,26.60
2023-07-21T20:47:32.815Z,26.60
2023-07-21T20:49:58.962Z,25.20
2023-07-21T20:52:25.090Z,26.80
2023-07-21T20:54:51.430Z,29.87
2023-07-21T20:57:17.558Z,26.90
2023-07-21T20:59:46.636Z,27.40
2023-07-21T21:02:13.248Z,30.27
2023-07-21T21:04:39.394Z,31.27
2023-07-21T21:07:05.531Z,27.23
2023-07-21T21:09:31.688Z,23.93
2023-07-21T21:11:57.850Z,20.70
2023-07-21T21:14:24.027Z,18.37
2023-07-21T21:16:50.275Z,17.60
2023-07-21T21:19:16.514Z,20.70
2023-07-21T21:21:42.668Z,22.10
2023-07-21T21:24:08.868Z,22.03
2023-07-21T21:26:35.060Z,21.47
2023-07-21T21:29:01.204Z,22.43
2023-07-21T21:31:27.398Z,23.43
2023-07-21T21:33:53.585Z,22.63
2023-07-21T21:36:19.717Z,19.50
2023-07-21T21:38:45.876Z,20.87
2023-07-21T21:41:12.106Z,20.30
2023-07-21T21:43:38.301Z,22.90
2023-07-21T21:46:04.570Z,23.47
2023-07-21T21:48:30.728Z,24.00
2023-07-21T21:50:56.871Z,23.83
2023-07-21T21:53:23.041Z,22.93
2023-07-21T21:55:49.182Z,22.57
2023-07-21T21:58:15.318Z,22.10
2023-07-21T22:00:41.740Z,21.70
2023-07-21T22:03:08.212Z,22.10
2023-07-21T22:05:34.456Z,20.27
2023-07-21T22:08:00.596Z,20.27
2023-07-21T22:10:26.736Z,19.50
2023-07-21T22:12:52.861Z,19.50
2023-07-21T22:15:19.001Z,21.43
2023-07-21T22:17:45.207Z,22.67
2023-07-21T22:20:12.215Z,23.30
2023-07-21T22:22:38.553Z,22.30
2023-07-21T22:25:04.857Z,22.83
2023-07-21T22:27:31.040Z,22.40
2023-07-21T22:29:57.234Z,23.33
2023-07-21T22:32:23.417Z,24.93
2023-07-21T22:34:49.547Z,24.43
2023-07-21T22:37:15.706Z,22.40
2023-07-21T22:39:41.841Z,20.50
2023-07-21T22:42:07.986Z,21.50
2023-07-21T22:44:34.121Z,20.93
2023-07-21T22:47:00.263Z,20.03
2023-07-21T22:49:26.399Z,19.47
2023-07-21T22:51:52.557Z,22.73
2023-07-21T22:54:18.686Z,20.90
2023-07-21T22:56:44.828Z,20.53
2023-07-21T22:59:10.961Z,22.73
2023-07-21T23:01:37.165Z,24.20
2023-07-21T23:04:03.321Z,24.17
2023-07-21T23:06:29.755Z,24.63
2023-07-21T23:08:56.024Z,24.60
2023-07-21T23:11:22.197Z,23.63
2023-07-21T23:13:48.337Z,23.47
2023-07-21T23:16:14.546Z,24.73
2023-07-21T23:18:40.738Z,24.37
2023-07-21T23:21:06.880Z,23.30
2023-07-21T23:23:33.024Z,24.27
2023-07-21T23:25:59.215Z,25.10
2023-07-21T23:28:25.366Z,20.87
2023-07-21T23:30:51.503Z,21.17
2023-07-21T23:33:17.672Z,21.20
2023-07-21T23:35:43.814Z,20.87
2023-07-21T23:38:09.968Z,21.70
2023-07-21T23:40:36.093Z,22.40
2023-07-21T23:43:02.233Z,21.93
2023-07-21T23:45:28.364Z,21.90
2023-07-21T23:47:54.605Z,22.13
2023-07-21T23:50:20.749Z,21.10
2023-07-21T23:52:46.891Z,21.13
2023-07-21T23:55:13.038Z,21.10
2023-07-21T23:57:39.239Z,19.93
